createdAt,value
2023-06-26T00:01:04.047Z,97531.25
2023-06-26T00:03:33.148Z,97529.09
2023-06-26T00:06:01.869Z,97526.88
2023-06-26T00:08:29.749Z,97532.38
2023-06-26T00:10:57.520Z,97523.72
2023-06-26T00:13:26.492Z,97523.72
2023-06-26T00:15:54.077Z,97530.19
2023-06-26T00:18:24.206Z,97526.91
2023-06-26T00:20:52.061Z,97529.28
2023-06-26T00:23:20.278Z,97521.97
2023-06-26T00:25:47.838Z,97522.72
2023-06-26T00:28:15.351Z,97524.06
2023-06-26T00:30:42.874Z,97524.41
2023-06-26T00:33:10.385Z,97520.75
2023-06-26T00:35:39.237Z,97528.53
2023-06-26T00:38:06.765Z,97530.44
2023-06-26T00:40:34.337Z,97519.56
2023-06-26T00:43:04.943Z,97515.25
2023-06-26T00:45:42.249Z,97525.50
2023-06-26T00:48:13.599Z,97523.91
2023-06-26T00:50:42.656Z,97520.88
2023-06-26T00:53:11.314Z,97516.78
2023-06-26T00:55:38.997Z,97513.03
2023-06-26T00:58:06.747Z,97511.91
2023-06-26T01:00:34.314Z,97511.38
2023-06-26T01:03:01.969Z,97513.53
2023-06-26T01:05:30.438Z,97510.97
2023-06-26T01:07:59.568Z,97507.38
2023-06-26T01:10:28.664Z,97505.81
2023-06-26T01:12:56.241Z,97502.94
2023-06-26T01:15:23.810Z,97506.66
2023-06-26T01:17:53.672Z,97501.41
2023-06-26T01:20:21.778Z,97500.84
2023-06-26T01:23:01.983Z,97496.81
2023-06-26T01:25:39.664Z,97500.63
2023-06-26T01:28:09.212Z,97496.28
2023-06-26T01:30:41.079Z,97492.19
2023-06-26T01:33:09.080Z,97490.84
2023-06-26T01:35:36.767Z,97492.41
2023-06-26T01:38:14.187Z,97497.06
2023-06-26T01:40:41.896Z,97497.25
2023-06-26T01:43:17.587Z,97482.13
2023-06-26T01:45:48.231Z,97479.94
2023-06-26T01:48:18.852Z,97484.78
2023-06-26T01:50:46.492Z,97480.16
2023-06-26T01:53:17.328Z,97478.16
2023-06-26T01:55:48.989Z,97469.16
2023-06-26T01:58:19.413Z,97474.22
2023-06-26T02:00:47.688Z,97466.59
2023-06-26T02:03:15.275Z,97466.78
2023-06-26T02:05:42.833Z,97475.16
2023-06-26T02:08:11.187Z,97471.88
2023-06-26T02:10:38.938Z,97470.22
2023-06-26T02:13:06.679Z,97468.63
2023-06-26T02:15:35.530Z,97480.53
2023-06-26T02:18:03.075Z,97468.81
2023-06-26T02:20:30.612Z,97477.69
2023-06-26T02:22:58.152Z,97471.97
2023-06-26T02:25:25.727Z,97474.41
2023-06-26T02:27:53.712Z,97477.13
2023-06-26T02:30:21.386Z,97476.22
2023-06-26T02:32:50.294Z,97473.94
2023-06-26T02:35:19.994Z,97470.56
2023-06-26T02:37:47.504Z,97465.16
2023-06-26T02:40:15.378Z,97464.88
2023-06-26T02:42:43.208Z,97464.28
2023-06-26T02:45:11.670Z,97466.69
2023-06-26T02:47:40.642Z,97458.81
2023-06-26T02:50:11.931Z,97460.91
2023-06-26T02:53:04.100Z,97470.91
2023-06-26T02:55:31.668Z,97468.94
2023-06-26T02:57:59.562Z,97462.16
2023-06-26T03:00:27.156Z,97466.50
2023-06-26T03:02:56.143Z,97463.72
2023-06-26T03:05:26.251Z,97462.41
2023-06-26T03:07:54.369Z,97463.97
2023-06-26T03:10:22.116Z,97459.31
2023-06-26T03:12:50.421Z,97459.75
2023-06-26T03:15:20.427Z,97458.44
2023-06-26T03:17:48.058Z,97451.63
2023-06-26T03:20:26.058Z,97455.44
2023-06-26T03:22:55.727Z,97467.81
2023-06-26T03:25:24.369Z,97460.25
2023-06-26T03:27:59.951Z,97462.88
2023-06-26T03:30:28.523Z,97458.25
2023-06-26T03:32:58.923Z,97457.66
2023-06-26T03:35:27.805Z,97460.28
2023-06-26T03:37:55.576Z,97461.63
2023-06-26T03:40:24.550Z,97456.09
2023-06-26T03:42:52.379Z,97458.22
2023-06-26T03:45:20.933Z,97468.88
2023-06-26T03:47:50.528Z,97463.81
2023-06-26T03:50:18.299Z,97458.66
2023-06-26T03:52:47.310Z,97459.72
2023-06-26T03:55:16.832Z,97458.06
2023-06-26T03:57:49.046Z,97457.91
2023-06-26T04:00:17.578Z,97458.22
2023-06-26T04:02:45.264Z,97454.94
2023-06-26T04:05:14.181Z,97449.47
2023-06-26T04:07:41.772Z,97450.69
2023-06-26T04:10:11.586Z,97456.50
2023-06-26T04:12:39.254Z,97448.16
2023-06-26T04:15:08.010Z,97457.56
2023-06-26T04:17:35.727Z,97449.78
2023-06-26T04:20:06.030Z,97452.59
2023-06-26T04:22:33.561Z,97452.31
2023-06-26T04:25:03.934Z,97450.56
2023-06-26T04:27:35.394Z,97447.94
2023-06-26T04:30:03.857Z,97452.28
2023-06-26T04:32:31.423Z,97449.88
2023-06-26T04:34:58.990Z,97436.19
2023-06-26T04:37:26.543Z,97444.03
2023-06-26T04:39:56.308Z,97438.34
2023-06-26T04:42:23.893Z,97441.97
2023-06-26T04:44:52.773Z,97428.78
2023-06-26T04:47:20.383Z,97442.44
2023-06-26T04:49:47.988Z,97443.69
2023-06-26T04:52:16.013Z,97434.25
2023-06-26T04:54:43.596Z,97435.03
2023-06-26T04:57:12.629Z,97435.75
2023-06-26T04:59:40.215Z,97441.47
2023-06-26T05:02:09.325Z,97435.56
2023-06-26T05:04:36.968Z,97428.03
2023-06-26T05:07:05.959Z,97430.56
2023-06-26T05:09:33.538Z,97431.16
2023-06-26T05:12:01.215Z,97437.66
2023-06-26T05:14:28.760Z,97438.78
2023-06-26T05:16:56.318Z,97431.81
2023-06-26T05:19:25.168Z,97440.84
2023-06-26T05:21:53.165Z,97435.56
2023-06-26T05:24:22.649Z,97433.44
2023-06-26T05:26:52.496Z,97435.38
2023-06-26T05:29:20.505Z,97427.28
2023-06-26T05:31:49.111Z,97429.50
2023-06-26T05:34:17.455Z,97422.75
2023-06-26T05:36:46.497Z,97431.78
2023-06-26T05:39:14.673Z,97418.81
2023-06-26T05:41:42.701Z,97425.34
2023-06-26T05:44:10.220Z,97424.28
2023-06-26T05:46:37.741Z,97409.69
2023-06-26T05:49:05.288Z,97422.72
2023-06-26T05:51:33.263Z,97418.94
2023-06-26T05:54:02.633Z,97411.66
2023-06-26T05:56:30.267Z,97423.34
2023-06-26T05:58:58.517Z,97425.28
2023-06-26T06:01:26.114Z,97418.22
2023-06-26T06:03:54.053Z,97421.22
2023-06-26T06:06:21.695Z,97421.78
2023-06-26T06:08:49.855Z,97420.72
2023-06-26T06:11:18.784Z,97431.31
2023-06-26T06:13:46.290Z,97417.47
2023-06-26T06:16:13.826Z,97413.69
2023-06-26T06:18:41.412Z,97411.25
2023-06-26T06:21:08.924Z,97413.16
2023-06-26T06:23:36.441Z,97414.50
2023-06-26T06:26:03.998Z,97409.63
2023-06-26T06:28:32.875Z,97402.81
2023-06-26T06:31:00.391Z,97408.00
2023-06-26T06:33:27.911Z,97404.22
2023-06-26T06:35:55.459Z,97399.03
2023-06-26T06:38:23.002Z,97406.66
2023-06-26T06:40:50.505Z,97407.13
2023-06-26T06:43:18.047Z,97412.28
2023-06-26T06:45:47.148Z,97406.53
2023-06-26T06:48:14.872Z,97410.91
2023-06-26T06:50:42.493Z,97400.75
2023-06-26T06:53:10.140Z,97400.16
2023-06-26T06:55:37.664Z,97394.91
2023-06-26T06:58:06.118Z,97394.84
2023-06-26T07:00:33.993Z,97395.06
2023-06-26T07:03:03.086Z,97396.09
2023-06-26T07:05:30.716Z,97392.72
2023-06-26T07:08:00.255Z,97393.66
2023-06-26T07:10:29.532Z,97392.47
2023-06-26T07:12:57.198Z,97392.88
2023-06-26T07:15:25.109Z,97382.09
2023-06-26T07:17:53.316Z,97386.25
2023-06-26T07:20:22.218Z,97386.34
2023-06-26T07:22:50.658Z,97387.84
2023-06-26T07:25:18.404Z,97395.91
2023-06-26T07:27:46.109Z,97387.22
2023-06-26T07:30:14.186Z,97386.78
2023-06-26T07:32:43.304Z,97387.06
2023-06-26T07:35:10.925Z,97391.50
2023-06-26T07:37:39.758Z,97394.41
2023-06-26T07:40:08.068Z,97384.69
2023-06-26T07:42:35.615Z,97382.06
2023-06-26T07:45:03.154Z,97376.22
2023-06-26T07:47:30.791Z,97374.91
2023-06-26T07:49:58.516Z,97372.00
2023-06-26T07:52:26.100Z,97367.72
2023-06-26T07:54:54.966Z,97372.09
2023-06-26T07:57:22.538Z,97366.72
2023-06-26T07:59:50.063Z,97360.13
2023-06-26T08:02:17.666Z,97356.91
2023-06-26T08:04:45.832Z,97361.16
2023-06-26T08:07:15.333Z,97357.81
2023-06-26T08:09:43.027Z,97352.69
2023-06-26T08:12:13.465Z,97355.50
2023-06-26T08:14:41.231Z,97348.28
2023-06-26T08:17:08.746Z,97362.28
2023-06-26T08:19:36.279Z,97357.03
2023-06-26T08:22:04.242Z,97353.56
2023-06-26T08:24:31.850Z,97357.50
2023-06-26T08:27:00.066Z,97358.97
2023-06-26T08:29:29.326Z,97357.47
2023-06-26T08:31:56.865Z,97347.81
2023-06-26T08:34:24.573Z,97358.09
2023-06-26T08:36:52.088Z,97354.88
2023-06-26T08:39:19.953Z,97346.63
2023-06-26T08:41:47.500Z,97349.75
2023-06-26T08:44:15.091Z,97343.31
2023-06-26T08:46:44.875Z,97341.75
2023-06-26T08:49:16.909Z,97349.81
2023-06-26T08:51:47.573Z,97343.69
2023-06-26T08:54:18.017Z,97340.88
2023-06-26T08:56:49.172Z,97334.03
2023-06-26T08:59:17.676Z,97327.09
2023-06-26T09:01:47.063Z,97337.97
2023-06-26T09:04:15.276Z,97333.28
2023-06-26T09:06:43.385Z,97336.34
2023-06-26T09:09:11.605Z,97337.31
2023-06-26T09:11:39.188Z,97337.78
2023-06-26T09:14:08.290Z,97325.66
2023-06-26T09:16:41.641Z,97331.78
2023-06-26T09:19:13.654Z,97323.84
2023-06-26T09:21:42.012Z,97329.53
2023-06-26T09:24:10.460Z,97312.19
2023-06-26T09:26:38.612Z,97328.25
2023-06-26T09:29:07.196Z,97325.34
2023-06-26T09:31:41.098Z,97319.97
2023-06-26T09:34:09.993Z,97322.91
2023-06-26T09:36:40.667Z,97326.28
2023-06-26T09:39:11.984Z,97316.56
2023-06-26T09:41:40.271Z,97310.75
2023-06-26T09:44:08.838Z,97322.31
2023-06-26T09:46:36.510Z,97311.56
2023-06-26T09:49:06.827Z,97309.28
2023-06-26T09:51:34.718Z,97310.25
2023-06-26T09:54:04.120Z,97304.09
2023-06-26T09:56:33.491Z,97299.38
2023-06-26T09:59:03.032Z,97302.22
2023-06-26T10:01:31.347Z,97312.50
2023-06-26T10:03:59.815Z,97306.56
2023-06-26T10:06:30.068Z,97295.81
2023-06-26T10:08:58.681Z,97304.72
2023-06-26T10:11:31.456Z,97297.63
2023-06-26T10:14:12.267Z,97292.41
2023-06-26T10:16:44.286Z,97300.84
2023-06-26T10:19:12.876Z,97293.13
2023-06-26T10:21:40.739Z,97294.03
2023-06-26T10:24:09.050Z,97290.66
2023-06-26T10:26:40.843Z,97303.03
2023-06-26T10:29:09.284Z,97282.22
2023-06-26T10:31:37.505Z,97288.00
2023-06-26T10:34:05.235Z,97280.63
2023-06-26T10:36:33.351Z,97284.41
2023-06-26T10:39:06.174Z,97289.75
2023-06-26T10:41:46.389Z,97282.59
2023-06-26T10:44:24.322Z,97280.16
2023-06-26T10:46:53.931Z,97281.44
2023-06-26T10:49:22.257Z,97271.47
2023-06-26T10:51:51.003Z,97271.34
2023-06-26T10:54:20.092Z,97276.56
2023-06-26T10:56:49.929Z,97278.59
2023-06-26T10:59:19.553Z,97260.50
2023-06-26T11:01:48.046Z,97271.53
2023-06-26T11:04:18.317Z,97259.41
2023-06-26T11:06:48.991Z,97267.03
2023-06-26T11:09:19.842Z,97257.03
2023-06-26T11:12:00.679Z,97260.91
2023-06-26T11:14:28.990Z,97257.09
2023-06-26T11:16:57.722Z,97261.75
2023-06-26T11:19:27.898Z,97255.50
2023-06-26T11:22:06.423Z,97256.13
2023-06-26T11:24:34.710Z,97264.84
2023-06-26T11:27:04.860Z,97251.81
2023-06-26T11:29:34.418Z,97245.16
2023-06-26T11:32:07.570Z,97241.34
2023-06-26T11:34:36.080Z,97249.31
2023-06-26T11:37:03.958Z,97249.91
2023-06-26T11:39:31.714Z,97248.66
2023-06-26T11:41:59.665Z,97237.81
2023-06-26T11:44:31.728Z,97231.97
2023-06-26T11:46:59.731Z,97234.31
2023-06-26T11:49:27.758Z,97238.81
2023-06-26T11:51:56.612Z,97228.19
2023-06-26T11:54:28.495Z,97228.50
2023-06-26T11:57:00.919Z,97231.72
2023-06-26T11:59:35.101Z,97233.59
2023-06-26T12:02:06.872Z,97228.59
2023-06-26T12:04:35.296Z,97235.19
2023-06-26T12:07:05.203Z,97234.16
2023-06-26T12:09:34.669Z,97233.03
2023-06-26T12:12:02.904Z,97241.78
2023-06-26T12:14:32.365Z,97232.97
2023-06-26T12:17:09.581Z,97231.38
2023-06-26T12:19:39.245Z,97236.81
2023-06-26T12:22:10.839Z,97231.19
2023-06-26T12:24:39.571Z,97231.16
2023-06-26T12:27:11.347Z,97226.91
2023-06-26T12:29:41.026Z,97228.88
2023-06-26T12:32:12.718Z,97225.13
2023-06-26T12:34:41.045Z,97213.97
2023-06-26T12:37:11.005Z,97225.88
2023-06-26T12:39:48.889Z,97223.03
2023-06-26T12:42:17.673Z,97222.94
2023-06-26T12:44:45.413Z,97223.63
2023-06-26T12:47:15.779Z,97219.97
2023-06-26T12:49:45.386Z,97224.31
2023-06-26T12:52:14.478Z,97218.06
2023-06-26T12:54:43.515Z,97207.13
2023-06-26T12:57:11.797Z,97207.09
2023-06-26T12:59:39.968Z,97209.41
2023-06-26T13:02:09.376Z,97205.84
2023-06-26T13:04:40.716Z,97200.22
2023-06-26T13:07:08.530Z,97198.19
2023-06-26T13:09:37.829Z,97189.06
2023-06-26T13:12:06.524Z,97192.03
2023-06-26T13:14:34.343Z,97183.09
2023-06-26T13:17:02.661Z,97176.84
2023-06-26T13:19:30.888Z,97172.03
2023-06-26T13:22:00.570Z,97172.72
2023-06-26T13:24:28.375Z,97170.31
2023-06-26T13:26:55.966Z,97178.44
2023-06-26T13:29:23.790Z,97166.91
2023-06-26T13:31:51.380Z,97166.31
2023-06-26T13:34:23.860Z,97162.97
2023-06-26T13:36:51.501Z,97152.69
2023-06-26T13:39:20.377Z,97153.09
2023-06-26T13:41:48.119Z,97144.81
2023-06-26T13:44:27.238Z,97144.81
2023-06-26T13:47:03.348Z,97152.81
2023-06-26T13:49:31.732Z,97150.16
2023-06-26T13:51:59.260Z,97147.38
2023-06-26T13:54:28.389Z,97146.41
2023-06-26T13:56:58.804Z,97130.84
2023-06-26T13:59:27.067Z,97126.97
2023-06-26T14:01:55.411Z,97124.69
2023-06-26T14:04:23.142Z,97121.59
2023-06-26T14:06:50.751Z,97112.19
2023-06-26T14:09:18.416Z,97108.28
2023-06-26T14:11:47.317Z,97106.00
2023-06-26T14:14:14.843Z,97116.47
2023-06-26T14:16:42.430Z,97107.47
2023-06-26T14:19:16.257Z,97093.97
2023-06-26T14:21:43.823Z,97095.28
2023-06-26T14:24:11.703Z,97108.94
2023-06-26T14:26:39.811Z,97100.09
2023-06-26T14:29:09.400Z,97088.72
2023-06-26T14:31:36.947Z,97100.50
2023-06-26T14:34:04.782Z,97091.47
2023-06-26T14:36:33.170Z,97093.72
2023-06-26T14:39:01.436Z,97092.88
2023-06-26T14:41:29.891Z,97094.78
2023-06-26T14:43:57.905Z,97099.06
2023-06-26T14:46:27.257Z,97090.53
2023-06-26T14:48:56.871Z,97090.16
2023-06-26T14:51:25.448Z,97090.78
2023-06-26T14:53:53.078Z,97080.16
2023-06-26T14:56:20.625Z,97084.53
2023-06-26T14:58:48.805Z,97092.38
2023-06-26T15:01:16.750Z,97085.09
2023-06-26T15:03:45.680Z,97073.47
2023-06-26T15:06:13.359Z,97080.13
2023-06-26T15:08:40.971Z,97084.28
2023-06-26T15:11:08.632Z,97070.81
2023-06-26T15:13:36.230Z,97071.41
2023-06-26T15:16:03.756Z,97070.34
2023-06-26T15:18:31.450Z,97093.34
2023-06-26T15:21:01.216Z,97095.13
2023-06-26T15:23:28.763Z,97091.28
2023-06-26T15:25:58.458Z,97089.00
2023-06-26T15:28:25.975Z,97094.91
2023-06-26T15:30:53.837Z,97093.66
2023-06-26T15:33:21.349Z,97108.00
2023-06-26T15:35:50.777Z,97122.28
2023-06-26T15:38:19.703Z,97128.94
2023-06-26T15:40:47.222Z,97124.25
2023-06-26T15:43:14.783Z,97126.84
2023-06-26T15:45:42.565Z,97132.63
2023-06-26T15:48:10.366Z,97138.56
2023-06-26T15:50:37.873Z,97145.28
2023-06-26T15:53:06.720Z,97159.06
2023-06-26T15:55:35.587Z,97154.78
2023-06-26T15:58:03.137Z,97166.59
2023-06-26T16:00:30.624Z,97171.72
2023-06-26T16:02:58.225Z,97181.81
2023-06-26T16:05:26.990Z,97197.38
2023-06-26T16:07:57.186Z,97221.69
2023-06-26T16:10:25.895Z,97217.38
2023-06-26T16:12:56.458Z,97211.75
2023-06-26T16:15:24.618Z,97198.28
2023-06-26T16:17:52.178Z,97196.44
2023-06-26T16:20:19.753Z,97193.56
2023-06-26T16:22:47.475Z,97200.88
2023-06-26T16:25:16.929Z,97201.97
2023-06-26T16:27:45.199Z,97202.13
2023-06-26T16:30:15.701Z,97188.66
2023-06-26T16:32:44.402Z,97206.19
2023-06-26T16:35:11.957Z,97195.63
2023-06-26T16:37:40.476Z,97201.03
2023-06-26T16:40:09.219Z,97209.16
2023-06-26T16:42:36.751Z,97200.00
2023-06-26T16:45:04.880Z,97202.84
2023-06-26T16:47:37.621Z,97192.31
2023-06-26T16:50:08.216Z,97190.38
2023-06-26T16:52:37.485Z,97196.75
2023-06-26T16:55:05.557Z,97201.53
2023-06-26T16:57:33.059Z,97200.50
2023-06-26T17:00:00.708Z,97221.09
2023-06-26T17:02:30.843Z,97217.06
2023-06-26T17:04:59.815Z,97209.53
2023-06-26T17:07:28.148Z,97218.66
2023-06-26T17:09:55.733Z,97224.22
2023-06-26T17:12:23.523Z,97233.13
2023-06-26T17:14:51.082Z,97221.09
2023-06-26T17:17:19.496Z,97227.97
2023-06-26T17:19:47.839Z,97238.22
2023-06-26T17:22:16.680Z,97248.84
2023-06-26T17:24:44.259Z,97253.59
2023-06-26T17:27:12.540Z,97261.06
2023-06-26T17:29:40.157Z,97266.06
2023-06-26T17:32:08.831Z,97262.09
2023-06-26T17:34:36.949Z,97267.22
2023-06-26T17:37:05.390Z,97264.22
2023-06-26T17:39:34.303Z,97266.94
2023-06-26T17:42:03.109Z,97272.84
2023-06-26T17:44:30.770Z,97278.25
2023-06-26T17:46:58.868Z,97290.47
2023-06-26T17:49:26.767Z,97290.53
2023-06-26T17:51:56.545Z,97302.84
2023-06-26T17:54:24.073Z,97302.59
2023-06-26T17:56:53.189Z,97291.38
2023-06-26T17:59:20.937Z,97307.09
2023-06-26T18:01:49.124Z,97312.72
2023-06-26T18:04:16.829Z,97304.50
2023-06-26T18:06:44.453Z,97309.22
2023-06-26T18:09:12.007Z,97321.44
2023-06-26T18:11:39.600Z,97311.03
2023-06-26T18:14:08.850Z,97307.25
2023-06-26T18:16:36.417Z,97310.78
2023-06-26T18:19:03.976Z,97309.38
2023-06-26T18:21:31.529Z,97315.44
2023-06-26T18:23:59.747Z,97320.09
2023-06-26T18:26:27.293Z,97308.06
2023-06-26T18:28:56.966Z,97316.31
2023-06-26T18:31:25.964Z,97313.59
2023-06-26T18:33:54.101Z,97315.72
2023-06-26T18:36:21.935Z,97308.34
2023-06-26T18:38:49.563Z,97318.38
2023-06-26T18:41:17.607Z,97330.53
2023-06-26T18:43:48.247Z,97336.06
2023-06-26T18:46:15.903Z,97338.94
2023-06-26T18:48:48.212Z,97336.28
2023-06-26T18:51:15.775Z,97337.69
2023-06-26T18:53:44.984Z,97343.81
2023-06-26T18:56:12.546Z,97342.16
2023-06-26T18:58:40.084Z,97351.91
2023-06-26T19:01:08.293Z,97360.38
2023-06-26T19:03:35.913Z,97348.59
2023-06-26T19:06:05.403Z,97342.31
2023-06-26T19:08:33.177Z,97351.84
2023-06-26T19:11:00.893Z,97344.63
2023-06-26T19:13:29.568Z,97356.44
2023-06-26T19:15:57.175Z,97352.72
2023-06-26T19:18:25.969Z,97356.03
2023-06-26T19:20:53.473Z,97366.69
2023-06-26T19:23:22.538Z,97374.09
2023-06-26T19:25:50.112Z,97377.22
2023-06-26T19:28:17.625Z,97379.19
2023-06-26T19:30:46.755Z,97372.13
2023-06-26T19:33:16.093Z,97387.41
2023-06-26T19:35:45.625Z,97392.03
2023-06-26T19:38:13.163Z,97397.56
2023-06-26T19:40:42.319Z,97405.44
2023-06-26T19:43:10.119Z,97405.75
2023-06-26T19:45:37.903Z,97407.16
2023-06-26T19:48:06.501Z,97411.63
2023-06-26T19:50:34.069Z,97415.97
2023-06-26T19:53:01.703Z,97429.53
2023-06-26T19:58:10.824Z,97442.88
2023-06-26T20:00:41.924Z,97427.88
2023-06-26T20:03:09.519Z,97433.16
2023-06-26T20:05:37.169Z,97439.41
2023-06-26T20:08:05.230Z,97439.94
2023-06-26T20:10:32.803Z,97444.25
2023-06-26T20:13:00.318Z,97435.81
2023-06-26T20:15:29.185Z,97431.72
2023-06-26T20:17:56.762Z,97445.34
2023-06-26T20:20:24.422Z,97450.28
2023-06-26T20:22:53.800Z,97442.69
2023-06-26T20:25:21.471Z,97447.09
2023-06-26T20:27:49.023Z,97452.53
2023-06-26T20:30:16.772Z,97450.97
2023-06-26T20:32:46.077Z,97457.00
2023-06-26T20:35:14.027Z,97461.63
2023-06-26T20:37:42.160Z,97460.34
2023-06-26T20:40:12.055Z,97462.22
2023-06-26T20:42:41.028Z,97457.84
2023-06-26T20:45:11.348Z,97461.97
2023-06-26T20:47:43.218Z,97462.34
2023-06-26T20:50:13.998Z,97460.97
2023-06-26T20:52:44.254Z,97467.50
2023-06-26T20:55:13.301Z,97460.19
2023-06-26T20:57:41.815Z,97472.97
2023-06-26T21:00:10.389Z,97473.53
2023-06-26T21:02:38.204Z,97463.16
2023-06-26T21:05:06.460Z,97470.25
2023-06-26T21:07:35.579Z,97479.00
2023-06-26T21:10:03.195Z,97476.81
2023-06-26T21:12:30.778Z,97482.78
2023-06-26T21:14:58.306Z,97477.34
2023-06-26T21:17:26.840Z,97478.69
2023-06-26T21:19:56.408Z,97484.69
2023-06-26T21:22:23.956Z,97487.16
2023-06-26T21:24:52.858Z,97480.34
2023-06-26T21:27:20.407Z,97480.91
2023-06-26T21:29:47.989Z,97489.53
2023-06-26T21:32:15.666Z,97495.25
2023-06-26T21:34:43.226Z,97494.47
2023-06-26T21:37:10.748Z,97494.69
2023-06-26T21:39:38.285Z,97501.41
2023-06-26T21:42:09.554Z,97500.09
2023-06-26T21:44:39.012Z,97500.09
2023-06-26T21:47:06.753Z,97508.91
2023-06-26T21:49:34.267Z,97510.31
2023-06-26T21:52:01.803Z,97494.06
2023-06-26T21:54:29.324Z,97507.59
2023-06-26T21:56:57.386Z,97515.19
2023-06-26T21:59:26.659Z,97517.94
2023-06-26T22:01:54.224Z,97511.91
2023-06-26T22:04:21.758Z,97513.28
2023-06-26T22:06:49.315Z,97517.88
2023-06-26T22:09:16.889Z,97507.38
2023-06-26T22:11:44.423Z,97513.47
2023-06-26T22:14:11.962Z,97510.72
2023-06-26T22:16:40.901Z,97517.88
2023-06-26T22:19:09.825Z,97520.59
2023-06-26T22:21:37.765Z,97517.34
2023-06-26T22:24:05.622Z,97522.13
2023-06-26T22:26:33.265Z,97523.56
2023-06-26T22:29:00.821Z,97529.66
2023-06-26T22:31:28.340Z,97529.72
2023-06-26T22:33:57.207Z,97531.31
2023-06-26T22:36:24.720Z,97530.72
2023-06-26T22:38:52.349Z,97538.75
2023-06-26T22:41:19.887Z,97529.03
2023-06-26T22:43:47.422Z,97534.53
2023-06-26T22:46:14.983Z,97522.84
2023-06-26T22:48:42.492Z,97535.41
2023-06-26T22:51:11.362Z,97537.88
2023-06-26T22:53:38.889Z,97534.53
2023-06-26T22:56:07.096Z,97535.25
2023-06-26T22:58:34.636Z,97538.09
2023-06-26T23:01:02.311Z,97536.66
2023-06-26T23:03:30.209Z,97543.38
2023-06-26T23:05:59.022Z,97543.81
2023-06-26T23:08:28.446Z,97549.59
2023-06-26T23:10:55.968Z,97549.22
2023-06-26T23:13:23.471Z,97545.81
2023-06-26T23:15:50.993Z,97552.69
2023-06-26T23:18:18.894Z,97550.75
2023-06-26T23:20:46.400Z,97549.97
2023-06-26T23:23:14.025Z,97546.59
2023-06-26T23:25:42.857Z,97552.09
2023-06-26T23:28:10.372Z,97545.84
2023-06-26T23:30:42.538Z,97550.69
2023-06-26T23:33:10.037Z,97551.91
2023-06-26T23:35:37.826Z,97544.25
2023-06-26T23:38:05.744Z,97553.41
2023-06-26T23:40:34.012Z,97559.91
2023-06-26T23:43:03.740Z,97560.16
2023-06-26T23:45:32.743Z,97562.41
2023-06-26T23:48:00.339Z,97560.28
2023-06-26T23:50:28.038Z,97555.25
2023-06-26T23:52:55.645Z,97565.66
2023-06-26T23:55:23.433Z,97565.81
2023-06-26T23:57:50.967Z,97566.59
